createdAt,value
2023-04-08T00:00:56.817Z,11.40
2023-04-08T00:03:59.804Z,15.20
2023-04-08T00:07:02.538Z,19.35
2023-04-08T00:10:06.999Z,17.10
2023-04-08T00:13:12.218Z,15.88
2023-04-08T00:16:15.012Z,13.82
2023-04-08T00:19:17.486Z,13.73
2023-04-08T00:22:20.348Z,16.23
2023-04-08T00:25:25.276Z,15.02
2023-04-08T00:28:28.465Z,15.98
2023-04-08T00:31:31.077Z,15.82
2023-04-08T00:34:34.392Z,13.73
2023-04-08T00:37:37.243Z,15.20
2023-04-08T00:40:41.214Z,13.73
2023-04-08T00:43:43.738Z,13.65
2023-04-08T00:46:47.463Z,13.45
2023-04-08T00:49:50.028Z,13.93
2023-04-08T00:52:52.835Z,12.35
2023-04-08T00:55:55.570Z,14.18
2023-04-08T00:59:00.685Z,13.68
2023-04-08T01:02:06.444Z,13.80
2023-04-08T01:05:21.330Z,13.67
2023-04-08T01:08:25.528Z,12.90
2023-04-08T01:11:30.302Z,14.52
2023-04-08T01:14:35.902Z,14.60
2023-04-08T01:17:38.805Z,13.82
2023-04-08T01:20:42.614Z,11.70
2023-04-08T01:24:10.182Z,14.35
2023-04-08T01:27:14.503Z,14.77
2023-04-08T01:30:21.259Z,14.73
2023-04-08T01:33:24.313Z,14.45
2023-04-08T01:36:28.822Z,16.23
2023-04-08T01:39:31.631Z,14.45
2023-04-08T01:42:35.396Z,14.60
2023-04-08T01:45:37.927Z,14.40
2023-04-08T01:48:40.948Z,14.50
2023-04-08T01:51:44.887Z,14.23
2023-04-08T01:54:47.911Z,13.52
2023-04-08T01:57:52.761Z,14.63
2023-04-08T02:00:56.908Z,15.55
2023-04-08T02:04:00.930Z,18.62
2023-04-08T02:07:04.836Z,13.93
2023-04-08T02:10:08.289Z,14.82
2023-04-08T02:13:11.581Z,13.73
2023-04-08T02:16:31.569Z,12.45
2023-04-08T02:20:06.663Z,11.63
2023-04-08T02:23:20.264Z,12.20
2023-04-08T02:26:23.183Z,12.75
2023-04-08T02:29:26.743Z,11.52
2023-04-08T02:32:31.058Z,14.00
2023-04-08T02:35:34.368Z,13.65
2023-04-08T02:38:37.205Z,12.70
2023-04-08T02:41:39.989Z,10.70
2023-04-08T02:44:42.491Z,11.38
2023-04-08T02:47:45.566Z,11.63
2023-04-08T02:50:48.045Z,10.95
2023-04-08T02:53:50.831Z,12.33
2023-04-08T02:56:53.397Z,11.77
2023-04-08T02:59:57.189Z,15.88
2023-04-08T03:03:01.089Z,12.32
2023-04-08T03:06:23.894Z,15.05
2023-04-08T03:09:26.478Z,14.47
2023-04-08T03:12:29.395Z,14.87
2023-04-08T03:15:31.890Z,13.05
2023-04-08T03:18:34.718Z,14.65
2023-04-08T03:21:37.212Z,12.63
2023-04-08T03:24:40.746Z,10.57
2023-04-08T03:27:43.244Z,10.57
2023-04-08T03:30:48.722Z,11.45
2023-04-08T03:33:52.092Z,11.88
2023-04-08T03:39:58.126Z,11.93
2023-04-08T03:43:02.726Z,10.07
2023-04-08T03:46:05.262Z,12.57
2023-04-08T03:49:08.063Z,11.93
2023-04-08T03:52:10.583Z,11.88
2023-04-08T03:55:13.449Z,11.00
2023-04-08T03:58:15.911Z,13.62
2023-04-08T04:01:18.957Z,14.35
2023-04-08T04:04:21.917Z,11.27
2023-04-08T04:07:24.501Z,13.50
2023-04-08T04:10:27.303Z,14.53
2023-04-08T04:13:29.857Z,10.95
2023-04-08T04:16:33.216Z,12.15
2023-04-08T04:19:36.054Z,12.43
2023-04-08T04:22:38.893Z,13.30
2023-04-08T04:25:42.304Z,10.37
2023-04-08T04:28:45.553Z,11.73
2023-04-08T04:31:48.259Z,12.85
2023-04-08T04:34:50.991Z,11.00
2023-04-08T04:37:53.903Z,10.95
2023-04-08T04:40:57.897Z,11.67
2023-04-08T04:44:00.376Z,7.80
2023-04-08T04:47:03.113Z,10.77
2023-04-08T04:50:06.840Z,11.57
2023-04-08T04:53:09.580Z,9.27
2023-04-08T04:56:12.074Z,10.33
2023-04-08T04:59:14.935Z,9.55
2023-04-08T05:02:17.922Z,10.23
2023-04-08T05:05:21.123Z,9.70
2023-04-08T05:08:24.921Z,9.07
2023-04-08T05:11:28.677Z,10.43
2023-04-08T05:14:31.233Z,8.50
2023-04-08T05:17:34.043Z,9.02
2023-04-08T05:20:39.716Z,10.10
2023-04-08T05:23:42.549Z,10.10
2023-04-08T05:26:45.068Z,10.23
2023-04-08T05:29:47.865Z,11.12
2023-04-08T05:32:50.996Z,10.73
2023-04-08T05:35:53.864Z,9.32
2023-04-08T05:38:56.660Z,8.07
2023-04-08T05:41:59.463Z,8.80
2023-04-08T05:45:02.038Z,11.43
2023-04-08T05:48:05.009Z,7.28
2023-04-08T05:51:13.808Z,8.43
2023-04-08T05:54:16.727Z,5.85
2023-04-08T05:57:19.230Z,10.03
2023-04-08T06:00:24.103Z,11.10
2023-04-08T06:03:27.261Z,11.77
2023-04-08T06:06:30.014Z,13.65
2023-04-08T06:09:37.277Z,9.73
2023-04-08T06:12:39.901Z,12.13
2023-04-08T06:15:42.608Z,14.50
2023-04-08T06:18:45.100Z,12.77
2023-04-08T06:21:48.127Z,12.70
2023-04-08T06:24:50.699Z,13.38
2023-04-08T06:27:53.455Z,14.53
2023-04-08T06:30:56.147Z,12.95
2023-04-08T06:34:00.747Z,13.35
2023-04-08T06:37:03.843Z,11.75
2023-04-08T06:40:07.233Z,12.68
2023-04-08T06:43:13.896Z,13.43
2023-04-08T06:46:16.913Z,7.50
2023-04-08T06:49:19.589Z,12.50
2023-04-08T06:52:24.136Z,14.10
2023-04-08T06:55:27.122Z,13.07
2023-04-08T06:58:30.071Z,10.63
2023-04-08T07:01:32.917Z,9.90
2023-04-08T07:04:36.101Z,12.13
2023-04-08T07:07:38.563Z,12.37
2023-04-08T07:10:42.014Z,11.00
2023-04-08T07:13:44.495Z,13.43
2023-04-08T07:16:47.392Z,10.63
2023-04-08T07:19:50.037Z,13.35
2023-04-08T07:22:52.891Z,13.95
2023-04-08T07:25:55.760Z,11.35
2023-04-08T07:28:58.633Z,13.60
2023-04-08T07:32:01.329Z,8.77
2023-04-08T07:35:04.663Z,13.45
2023-04-08T07:38:14.090Z,15.55
2023-04-08T07:41:17.767Z,12.93
2023-04-08T07:44:20.380Z,14.30
2023-04-08T07:47:23.340Z,13.20
2023-04-08T07:50:25.933Z,17.12
2023-04-08T07:53:29.028Z,13.05
2023-04-08T07:56:31.511Z,13.00
2023-04-08T07:59:34.636Z,11.40
2023-04-08T08:02:37.213Z,15.43
2023-04-08T08:05:40.476Z,8.82
2023-04-08T08:08:43.101Z,13.70
2023-04-08T08:11:45.958Z,15.10
2023-04-08T08:14:48.444Z,16.07
2023-04-08T08:17:51.471Z,11.52
2023-04-08T08:20:54.713Z,14.80
2023-04-08T08:23:58.008Z,16.25
2023-04-08T08:27:01.249Z,14.68
2023-04-08T08:30:04.586Z,9.17
2023-04-08T08:33:27.930Z,5.28
2023-04-08T08:36:32.781Z,13.70
2023-04-08T08:39:36.118Z,9.85
2023-04-08T08:42:39.362Z,14.05
2023-04-08T08:45:42.401Z,13.03
2023-04-08T08:48:47.069Z,13.23
2023-04-08T08:51:51.167Z,13.43
2023-04-08T08:54:59.916Z,6.40
2023-04-08T08:58:02.952Z,8.98
2023-04-08T09:01:38.049Z,11.63
2023-04-08T09:04:56.572Z,12.32
2023-04-08T09:08:00.615Z,7.68
2023-04-08T09:11:16.636Z,15.15
2023-04-08T09:14:23.418Z,13.57
2023-04-08T09:17:39.339Z,12.47
2023-04-08T09:20:53.024Z,14.40
2023-04-08T09:23:55.533Z,9.30
2023-04-08T09:26:58.300Z,17.67
2023-04-08T09:30:16.523Z,10.73
2023-04-08T09:33:19.341Z,14.00
2023-04-08T09:36:21.856Z,14.77
2023-04-08T09:39:24.821Z,15.00
2023-04-08T09:42:27.352Z,9.07
2023-04-08T09:45:30.932Z,15.60
2023-04-08T09:48:36.722Z,19.17
2023-04-08T09:51:48.752Z,17.48
2023-04-08T09:55:08.968Z,23.90
2023-04-08T09:58:19.365Z,16.08
2023-04-08T10:01:29.396Z,16.80
2023-04-08T10:07:41.428Z,15.38
2023-04-08T10:10:47.857Z,15.00
2023-04-08T10:13:51.635Z,12.65
2023-04-08T10:17:36.068Z,9.50
2023-04-08T10:20:42.685Z,12.07
2023-04-08T10:24:11.761Z,13.23
2023-04-08T10:27:43.363Z,13.98
2023-04-08T10:30:50.224Z,11.75
2023-04-08T10:33:53.169Z,10.75
2023-04-08T10:36:58.923Z,12.00
2023-04-08T10:40:01.599Z,9.63
2023-04-08T10:43:05.988Z,11.25
2023-04-08T10:46:10.757Z,14.90
2023-04-08T10:49:14.296Z,12.00
2023-04-08T10:52:16.850Z,14.23
2023-04-08T10:55:29.533Z,11.57
2023-04-08T10:58:32.206Z,12.40
2023-04-08T11:01:42.012Z,15.93
2023-04-08T11:04:44.784Z,13.95
2023-04-08T11:07:47.596Z,11.67
2023-04-08T11:10:50.600Z,14.87
2023-04-08T11:13:54.133Z,14.13
2023-04-08T11:16:57.581Z,12.52
2023-04-08T11:20:02.613Z,12.10
2023-04-08T11:23:05.052Z,13.40
2023-04-08T11:26:08.028Z,18.48
2023-04-08T11:29:16.945Z,23.85
2023-04-08T11:32:20.032Z,10.23
2023-04-08T11:35:22.548Z,11.32
2023-04-08T11:38:25.403Z,13.10
2023-04-08T11:41:37.773Z,11.57
2023-04-08T11:44:40.695Z,12.57
2023-04-08T11:47:44.107Z,14.63
2023-04-08T11:50:47.086Z,11.45
2023-04-08T11:53:52.698Z,13.70
2023-04-08T11:56:58.499Z,13.18
2023-04-08T12:00:01.090Z,12.50
2023-04-08T12:03:04.209Z,12.07
2023-04-08T12:06:08.854Z,13.40
2023-04-08T12:09:11.518Z,13.13
2023-04-08T12:12:14.443Z,14.52
2023-04-08T12:15:17.466Z,17.10
2023-04-08T12:18:21.036Z,16.67
2023-04-08T12:21:23.645Z,13.90
2023-04-08T12:24:27.074Z,15.17
2023-04-08T12:27:30.658Z,14.90
2023-04-08T12:30:33.797Z,14.32
2023-04-08T12:33:36.355Z,16.52
2023-04-08T12:36:41.326Z,17.10
2023-04-08T12:39:44.338Z,16.10
2023-04-08T12:42:47.167Z,18.05
2023-04-08T12:45:49.833Z,19.75
2023-04-08T12:49:03.107Z,16.40
2023-04-08T12:52:06.935Z,21.35
2023-04-08T12:55:28.560Z,16.90
2023-04-08T12:58:31.265Z,28.73
2023-04-08T13:01:34.152Z,28.15
2023-04-08T13:04:36.778Z,23.95
2023-04-08T13:07:39.592Z,22.10
2023-04-08T13:10:43.601Z,15.67
2023-04-08T13:13:47.079Z,15.45
2023-04-08T13:16:49.869Z,12.93
2023-04-08T13:19:53.243Z,14.77
2023-04-08T13:22:55.817Z,15.18
2023-04-08T13:25:58.903Z,13.90
2023-04-08T13:29:01.839Z,16.25
2023-04-08T13:32:05.508Z,18.48
2023-04-08T13:35:08.911Z,18.23
2023-04-08T13:38:12.883Z,17.33
2023-04-08T13:41:15.631Z,14.33
2023-04-08T13:44:18.480Z,15.45
2023-04-08T13:47:21.012Z,15.95
2023-04-08T13:50:23.826Z,18.37
2023-04-08T13:53:26.272Z,14.35
2023-04-08T13:56:29.036Z,16.93
2023-04-08T13:59:31.583Z,18.33
2023-04-08T14:02:34.649Z,17.33
2023-04-08T14:05:37.899Z,18.65
2023-04-08T14:08:40.419Z,14.98
2023-04-08T14:11:43.987Z,13.80
2023-04-08T14:14:46.462Z,19.98
2023-04-08T14:17:50.556Z,17.80
2023-04-08T14:20:53.607Z,9.35
2023-04-08T14:23:57.019Z,14.38
2023-04-08T14:26:59.488Z,11.97
2023-04-08T14:30:02.681Z,10.25
2023-04-08T14:33:05.495Z,12.48
2023-04-08T14:36:09.300Z,16.17
2023-04-08T14:39:14.509Z,5.32
2023-04-08T14:42:18.343Z,35.47
2023-04-08T14:45:21.868Z,18.17
2023-04-08T14:48:31.257Z,10.60
2023-04-08T14:51:37.778Z,8.80
2023-04-08T14:54:41.380Z,10.35
2023-04-08T14:57:43.936Z,4.20
2023-04-08T15:00:47.851Z,8.02
2023-04-08T15:03:50.600Z,8.50
2023-04-08T15:06:53.469Z,8.45
2023-04-08T15:09:56.950Z,8.10
2023-04-08T15:12:59.842Z,8.27
2023-04-08T15:16:02.350Z,9.60
2023-04-08T15:19:05.979Z,9.35
2023-04-08T15:22:08.547Z,10.75
2023-04-08T15:25:11.377Z,9.82
2023-04-08T15:28:13.972Z,11.10
2023-04-08T15:31:16.857Z,8.40
2023-04-08T15:34:19.720Z,9.70
2023-04-08T15:37:23.111Z,8.88
2023-04-08T15:40:25.930Z,9.23
2023-04-08T15:43:29.045Z,10.70
2023-04-08T15:49:34.821Z,12.23
2023-04-08T15:52:37.302Z,11.65
2023-04-08T15:55:41.039Z,15.60
2023-04-08T15:58:44.676Z,14.40
2023-04-08T16:01:47.894Z,13.02
2023-04-08T16:04:51.103Z,9.73
2023-04-08T16:07:54.072Z,13.23
2023-04-08T16:11:01.859Z,10.15
2023-04-08T16:14:05.168Z,14.33
2023-04-08T16:17:07.963Z,14.98
2023-04-08T16:20:11.607Z,12.68
2023-04-08T16:23:15.604Z,15.43
2023-04-08T16:26:18.060Z,48.13
2023-04-08T16:29:22.699Z,20.97
2023-04-08T16:32:26.259Z,16.42
2023-04-08T16:35:29.044Z,47.92
2023-04-08T16:38:33.140Z,16.65
2023-04-08T16:41:36.704Z,13.30
2023-04-08T16:44:39.248Z,12.73
2023-04-08T16:47:42.095Z,15.10
2023-04-08T16:50:44.901Z,11.77
2023-04-08T16:53:47.895Z,11.02
2023-04-08T16:56:50.630Z,15.55
2023-04-08T16:59:53.841Z,30.50
2023-04-08T17:02:57.387Z,43.40
2023-04-08T17:06:11.844Z,24.65
2023-04-08T17:12:17.520Z,42.72
2023-04-08T17:15:20.075Z,47.10
2023-04-08T17:18:22.935Z,37.55
2023-04-08T17:21:26.863Z,53.25
2023-04-08T17:24:29.733Z,49.75
2023-04-08T17:27:32.260Z,42.17
2023-04-08T17:30:35.039Z,29.57
2023-04-08T17:33:37.672Z,29.90
2023-04-08T17:36:40.672Z,28.25
2023-04-08T17:39:44.134Z,42.70
2023-04-08T17:42:46.881Z,72.85
2023-04-08T17:45:50.611Z,21.53
2023-04-08T17:48:53.626Z,24.33
2023-04-08T17:51:56.503Z,20.37
2023-04-08T17:54:59.252Z,22.87
2023-04-08T17:58:02.268Z,17.42
2023-04-08T18:01:07.704Z,23.57
2023-04-08T18:04:12.509Z,22.52
2023-04-08T18:07:15.376Z,24.70
2023-04-08T18:10:18.558Z,20.37
2023-04-08T18:13:21.043Z,22.77
2023-04-08T18:16:23.923Z,28.13
2023-04-08T18:19:28.788Z,34.95
2023-04-08T18:22:31.946Z,36.35
2023-04-08T18:25:34.749Z,34.38
2023-04-08T18:28:37.799Z,27.83
2023-04-08T18:31:40.856Z,23.70
2023-04-08T18:34:43.640Z,46.40
2023-04-08T18:37:46.244Z,52.15
2023-04-08T18:40:49.172Z,41.90
2023-04-08T18:43:52.157Z,27.52
2023-04-08T18:46:55.029Z,18.17
2023-04-08T18:49:57.677Z,10.18
2023-04-08T18:53:00.953Z,14.15
2023-04-08T18:56:03.422Z,11.45
2023-04-08T18:59:06.559Z,17.12
2023-04-08T19:02:09.324Z,12.87
2023-04-08T19:05:12.279Z,14.48
2023-04-08T19:08:15.012Z,18.70
2023-04-08T19:11:17.791Z,19.73
2023-04-08T19:14:20.789Z,22.08
2023-04-08T19:17:23.600Z,15.47
2023-04-08T19:20:27.267Z,20.98
2023-04-08T19:23:30.650Z,14.68
2023-04-08T19:26:33.876Z,19.00
2023-04-08T19:29:36.883Z,26.02
2023-04-08T19:32:39.402Z,27.77
2023-04-08T19:35:42.638Z,27.42
2023-04-08T19:38:45.290Z,22.05
2023-04-08T19:41:48.559Z,25.95
2023-04-08T19:44:51.619Z,24.48
2023-04-08T19:47:54.656Z,27.23
2023-04-08T19:50:57.269Z,31.80
2023-04-08T19:54:00.259Z,33.65
2023-04-08T19:57:02.727Z,32.08
2023-04-08T20:00:06.103Z,27.90
2023-04-08T20:03:09.196Z,34.33
2023-04-08T20:06:12.171Z,40.45
2023-04-08T20:09:14.757Z,37.58
2023-04-08T20:12:17.991Z,34.08
2023-04-08T20:15:25.189Z,30.67
2023-04-08T20:18:28.780Z,35.63
2023-04-08T20:21:31.306Z,39.03
2023-04-08T20:24:34.502Z,35.17
2023-04-08T20:27:37.364Z,33.75
2023-04-08T20:30:40.879Z,34.63
2023-04-08T20:33:44.325Z,33.20
2023-04-08T20:36:47.358Z,35.40
2023-04-08T20:39:49.919Z,31.60
2023-04-08T20:42:52.788Z,26.85
2023-04-08T20:45:55.406Z,27.70
2023-04-08T20:48:58.283Z,26.67
2023-04-08T20:52:00.917Z,26.12
2023-04-08T20:55:03.997Z,28.45
2023-04-08T20:58:07.757Z,25.85
2023-04-08T21:01:11.087Z,20.88
2023-04-08T21:04:13.776Z,20.90
2023-04-08T21:07:16.515Z,20.02
2023-04-08T21:10:19.164Z,20.70
2023-04-08T21:13:22.160Z,19.87
2023-04-08T21:16:24.744Z,22.10
2023-04-08T21:19:27.493Z,22.23
2023-04-08T21:22:30.358Z,20.92
2023-04-08T21:25:33.892Z,18.00
2023-04-08T21:28:36.638Z,17.15
2023-04-08T21:31:41.203Z,16.52
2023-04-08T21:34:43.775Z,17.27
2023-04-08T21:37:46.706Z,17.52
2023-04-08T21:40:49.265Z,21.33
2023-04-08T21:43:53.707Z,20.20
2023-04-08T21:46:56.255Z,17.52
2023-04-08T21:49:59.251Z,16.57
2023-04-08T21:53:02.185Z,14.90
2023-04-08T21:56:05.753Z,14.43
2023-04-08T21:59:08.257Z,15.75
2023-04-08T22:02:14.940Z,15.02
2023-04-08T22:05:17.818Z,8.30
2023-04-08T22:08:20.994Z,11.45
2023-04-08T22:11:24.056Z,6.62
2023-04-08T22:14:26.687Z,10.73
2023-04-08T22:17:29.496Z,11.10
2023-04-08T22:20:32.075Z,14.47
2023-04-08T22:23:35.073Z,11.15
2023-04-08T22:26:37.736Z,11.88
2023-04-08T22:29:41.148Z,14.32
2023-04-08T22:32:43.830Z,12.25
2023-04-08T22:35:46.790Z,12.83
2023-04-08T22:38:49.486Z,15.88
2023-04-08T22:41:52.602Z,14.95
2023-04-08T22:44:55.757Z,20.15
2023-04-08T22:47:59.732Z,16.45
2023-04-08T22:51:02.292Z,15.37
2023-04-08T22:54:05.033Z,13.82
2023-04-08T22:57:07.628Z,13.62
2023-04-08T23:00:11.389Z,14.00
2023-04-08T23:03:14.336Z,17.27
2023-04-08T23:06:17.057Z,12.83
2023-04-08T23:09:20.683Z,13.75
2023-04-08T23:12:23.586Z,16.98
2023-04-08T23:15:26.051Z,14.27
2023-04-08T23:18:28.884Z,17.05
2023-04-08T23:21:31.972Z,16.60
2023-04-08T23:24:34.778Z,16.58
2023-04-08T23:27:37.390Z,15.38
2023-04-08T23:30:40.339Z,15.52
2023-04-08T23:33:42.824Z,15.63
2023-04-08T23:36:45.672Z,16.50
2023-04-08T23:39:48.381Z,15.38
2023-04-08T23:42:51.294Z,14.60
2023-04-08T23:45:54.770Z,17.85
2023-04-08T23:48:59.445Z,15.60
2023-04-08T23:52:02.202Z,14.80
2023-04-08T23:55:05.601Z,16.85
